Terminal Aerodrome Forecast
Issued by NWS

Current Version | Previous Version | Text Only | Print | Product List | Glossary On
Versions: 1 2 3 4 5 6 7 8 9 10 11 12 13 14 15
822
FTUS43 KIND 281720
TAFHUF
TAF
KHUF 281720Z 2818/2918 36008KT P6SM FEW023
     FM282000 01008KT P6SM BKN040
     FM282300 01007KT P6SM BKN030
     FM290500 04006KT P6SM BKN025
     FM291400 08010KT P6SM BKN015
     FM291700 08010KT P6SM BKN040=

USA.gov is the U.S. government's official web portal to all federal, state and local government web resources and services.